Lady Lauren — WDE7767 — position and weather

sailwx.info

Track history (hours):
 
Tides and Currents Weather Stations Pressure Air Temp Water Temp Dewpoint Dewpoint Depression Visibility Wind Speed Wind Dir Waves Ship Positions

Lady Lauren

Owner: Louisiana Marine Towing LLC, Lafayette, LA. More information available from US FCC via Universal Licensing System and Coast Guard Vessel Documentation Center.

Last reported at 2015-Jun-30 16:25 UTC. Time now 2015-Jul-05 09:28 UTC.
Position N 29°33' W 090°54'.

Length 22 m; draft 2.1 m.

Type: Towing. MMSI: 367397380.

Date/timePositionNaut miles runAvg speedWind from/ knotsBaromVisibWave heightAir tempDewpointWater temp
2015-Jun-30 16:25N 29°33' W 090°54'3 3.3
2015-Jun-30 15:33N 29°32' W 090°50'3 3.4
2015-Jun-30 14:33N 29°32' W 090°46'2 1.9
2015-Jun-30 13:33N 29°34' W 090°45'0 0.1
2015-Jun-30 12:33N 29°33' W 090°45'0 0.0
2015-Jun-30 11:33N 29°34' W 090°45'1 1.2
2015-Jun-30 10:33N 29°34' W 090°44'0 0.0
2015-Jun-30 09:33N 29°34' W 090°44'1 1.2
2015-Jun-30 08:33N 29°33' W 090°45'0 0.0
2015-Jun-30 07:33N 29°34' W 090°45'0 0.1
2015-Jun-30 06:33N 29°34' W 090°45'2 1.6
2015-Jun-30 05:33N 29°34' W 090°43'2 2.2
2015-Jun-30 04:33N 29°36' W 090°43'1 1.4
2015-Jun-30 03:33N 29°36' W 090°41'2 2.1
2015-Jun-30 02:33N 29°35' W 090°39'2 2.2
2015-Jun-30 01:33N 29°35' W 090°36'2 2.4
2015-Jun-30 00:33N 29°34' W 090°34'2 2.5
2015-Jun-29 23:33N 29°34' W 090°31'36 0.9
2015-Jun-28 09:19N 29°55' W 089°59'0 0.1
2015-Jun-28 06:16N 29°56' W 089°59'3 3.7
2015-Jun-28 05:31N 29°57' W 090°02'5 5.3
2015-Jun-28 04:32N 29°54' W 090°07'0 0.0
2015-Jun-27 21:26N 29°55' W 090°07'3 2.9
2015-Jun-27 20:33N 29°55' W 090°04'31 0.8
2015-Jun-26 05:33N 29°34' W 090°29'4 3.7
2015-Jun-26 04:33N 29°34' W 090°33'3 3.4
2015-Jun-26 03:33N 29°35' W 090°37'1 0.8
2015-Jun-26 02:33N 29°35' W 090°38'2 1.5
2015-Jun-26 01:33N 29°36' W 090°39'3 3.0
2015-Jun-26 00:33N 29°36' W 090°43'3 2.8
2015-Jun-25 23:33N 29°34' W 090°45'1 0.8
2015-Jun-25 22:33N 29°33' W 090°45'0 0.0
2015-Jun-25 21:33N 29°33' W 090°45'1 1.2
2015-Jun-25 20:33N 29°34' W 090°44'1 0.6
2015-Jun-25 19:33N 29°34' W 090°44'0 0.0
2015-Jun-25 18:33N 29°34' W 090°44'0 0.0
2015-Jun-25 17:33N 29°34' W 090°44'1 1.3
2015-Jun-25 16:33N 29°33' W 090°45'1 1.2
2015-Jun-25 15:33N 29°34' W 090°44'1 1.2
2015-Jun-25 14:33N 29°35' W 090°43'0 0.0
2015-Jun-25 13:33N 29°35' W 090°43'0 0.0
2015-Jun-25 12:33N 29°35' W 090°43'1 1.4
2015-Jun-25 11:33N 29°34' W 090°44'1 1.4
2015-Jun-25 10:33N 29°33' W 090°45'0 0.0
2015-Jun-25 09:33N 29°33' W 090°45'0 0.1
2015-Jun-25 08:33N 29°33' W 090°45'2 2.1
2015-Jun-25 07:33N 29°32' W 090°47'3 3.0
2015-Jun-25 06:33N 29°32' W 090°51'  
Track history (hours):
 
Tides and Currents Weather Stations Pressure Air Temp Water Temp Dewpoint Dewpoint Depression Visibility Wind Speed Wind Dir Waves Ship Positions

Lady Lauren

Owner: Louisiana Marine Towing LLC, Lafayette, LA. More information available from US FCC via Universal Licensing System and Coast Guard Vessel Documentation Center.

Last reported at 2015-Jun-30 16:25 UTC. Time now 2015-Jul-05 09:28 UTC.
Position N 29°33' W 090°54'.

Length 22 m; draft 2.1 m.

Type: Towing. MMSI: 367397380.

Date/timePositionNaut miles runAvg speedWind from/ knotsBaromVisibWave heightAir tempDewpointWater temp
2015-Jun-30 16:25N 29°33' W 090°54'3 3.3
2015-Jun-30 15:33N 29°32' W 090°50'3 3.4
2015-Jun-30 14:33N 29°32' W 090°46'2 1.9
2015-Jun-30 13:33N 29°34' W 090°45'0 0.1
2015-Jun-30 12:33N 29°33' W 090°45'0 0.0
2015-Jun-30 11:33N 29°34' W 090°45'1 1.2
2015-Jun-30 10:33N 29°34' W 090°44'0 0.0
2015-Jun-30 09:33N 29°34' W 090°44'1 1.2
2015-Jun-30 08:33N 29°33' W 090°45'0 0.0
2015-Jun-30 07:33N 29°34' W 090°45'0 0.1
2015-Jun-30 06:33N 29°34' W 090°45'2 1.6
2015-Jun-30 05:33N 29°34' W 090°43'2 2.2
2015-Jun-30 04:33N 29°36' W 090°43'1 1.4
2015-Jun-30 03:33N 29°36' W 090°41'2 2.1
2015-Jun-30 02:33N 29°35' W 090°39'2 2.2
2015-Jun-30 01:33N 29°35' W 090°36'2 2.4
2015-Jun-30 00:33N 29°34' W 090°34'2 2.5
2015-Jun-29 23:33N 29°34' W 090°31'36 0.9
2015-Jun-28 09:19N 29°55' W 089°59'0 0.1
2015-Jun-28 06:16N 29°56' W 089°59'3 3.7
2015-Jun-28 05:31N 29°57' W 090°02'5 5.3
2015-Jun-28 04:32N 29°54' W 090°07'0 0.0
2015-Jun-27 21:26N 29°55' W 090°07'3 2.9
2015-Jun-27 20:33N 29°55' W 090°04'31 0.8
2015-Jun-26 05:33N 29°34' W 090°29'4 3.7
2015-Jun-26 04:33N 29°34' W 090°33'3 3.4
2015-Jun-26 03:33N 29°35' W 090°37'1 0.8
2015-Jun-26 02:33N 29°35' W 090°38'2 1.5
2015-Jun-26 01:33N 29°36' W 090°39'3 3.0
2015-Jun-26 00:33N 29°36' W 090°43'3 2.8
2015-Jun-25 23:33N 29°34' W 090°45'1 0.8
2015-Jun-25 22:33N 29°33' W 090°45'0 0.0
2015-Jun-25 21:33N 29°33' W 090°45'1 1.2
2015-Jun-25 20:33N 29°34' W 090°44'1 0.6
2015-Jun-25 19:33N 29°34' W 090°44'0 0.0
2015-Jun-25 18:33N 29°34' W 090°44'0 0.0
2015-Jun-25 17:33N 29°34' W 090°44'1 1.3
2015-Jun-25 16:33N 29°33' W 090°45'1 1.2
2015-Jun-25 15:33N 29°34' W 090°44'1 1.2
2015-Jun-25 14:33N 29°35' W 090°43'0 0.0
2015-Jun-25 13:33N 29°35' W 090°43'0 0.0
2015-Jun-25 12:33N 29°35' W 090°43'1 1.4
2015-Jun-25 11:33N 29°34' W 090°44'1 1.4
2015-Jun-25 10:33N 29°33' W 090°45'0 0.0
2015-Jun-25 09:33N 29°33' W 090°45'0 0.1
2015-Jun-25 08:33N 29°33' W 090°45'2 2.1
2015-Jun-25 07:33N 29°32' W 090°47'3 3.0
2015-Jun-25 06:33N 29°32' W 090°51'  

Dump ship's entire track history